createdAt,value
2019-05-13T00:03:13.458Z,0.40
2019-05-13T00:08:16.395Z,0.30
2019-05-13T00:13:19.878Z,0.40
2019-05-13T00:18:23.655Z,0.25
2019-05-13T00:23:27.202Z,0.33
2019-05-13T00:28:30.703Z,0.57
2019-05-13T00:33:34.183Z,0.40
2019-05-13T00:38:37.659Z,0.50
2019-05-13T00:43:41.131Z,0.30
2019-05-13T00:48:44.636Z,0.57
2019-05-13T00:53:48.099Z,0.37
2019-05-13T00:58:53.981Z,0.62
2019-05-13T01:03:56.740Z,0.42
2019-05-13T01:09:00.204Z,0.40
2019-05-13T01:14:04.395Z,0.33
2019-05-13T01:19:07.874Z,0.30
2019-05-13T01:24:14.185Z,0.50
2019-05-13T01:29:16.512Z,0.50
2019-05-13T01:34:19.972Z,0.50
2019-05-13T01:39:24.360Z,0.50
2019-05-13T01:44:27.970Z,0.35
2019-05-13T01:49:33.662Z,0.30
2019-05-13T01:54:36.627Z,0.40
2019-05-13T01:59:40.087Z,0.60
2019-05-13T02:04:43.999Z,0.50
2019-05-13T02:09:47.581Z,0.35
2019-05-13T02:14:52.948Z,0.50
2019-05-13T02:19:56.256Z,0.30
2019-05-13T02:24:59.741Z,0.42
2019-05-13T02:30:05.456Z,0.40
2019-05-13T02:35:09.212Z,0.30
2019-05-13T02:40:14.487Z,0.30
2019-05-13T02:45:18.185Z,0.20
2019-05-13T02:50:22.671Z,0.30
2019-05-13T02:55:26.322Z,0.40
2019-05-13T03:00:32.841Z,0.20
2019-05-13T03:05:34.986Z,0.40
2019-05-13T03:10:38.464Z,0.25
2019-05-13T03:15:43.554Z,0.20
2019-05-13T03:20:47.029Z,0.60
2019-05-13T03:25:53.773Z,0.50
2019-05-13T03:30:56.948Z,0.50
2019-05-13T03:36:06.916Z,0.40
2019-05-13T03:41:07.284Z,0.40
2019-05-13T03:46:12.766Z,0.30
2019-05-13T03:51:16.264Z,0.25
2019-05-13T03:56:23.138Z,0.57
2019-05-13T04:01:25.009Z,0.60
2019-05-13T04:06:28.514Z,0.80
2019-05-13T04:11:33.024Z,1.00
2019-05-13T04:16:36.643Z,0.85
2019-05-13T04:21:42.895Z,0.80
2019-05-13T04:26:45.337Z,0.85
2019-05-13T04:31:48.979Z,1.05
2019-05-13T04:36:52.447Z,0.90
2019-05-13T04:41:55.997Z,0.80
2019-05-13T04:47:03.193Z,1.02
2019-05-13T04:52:04.727Z,0.70
2019-05-13T04:57:08.214Z,0.55
2019-05-13T05:02:22.430Z,0.93
2019-05-13T05:07:32.728Z,0.57
2019-05-13T05:12:57.584Z,0.60
2019-05-13T05:18:06.704Z,0.80
2019-05-13T05:23:32.041Z,0.82
2019-05-13T05:28:41.217Z,1.03
2019-05-13T05:33:56.052Z,0.95
2019-05-13T05:39:08.265Z,0.87
2019-05-13T05:44:13.491Z,0.78
2019-05-13T05:49:21.354Z,0.65
2019-05-13T05:54:27.525Z,0.70
2019-05-13T05:59:32.143Z,0.70
2019-05-13T06:04:36.117Z,1.15
2019-05-13T06:09:39.599Z,0.90
2019-05-13T06:14:43.508Z,1.00
2019-05-13T06:19:47.149Z,0.80
2019-05-13T06:24:52.194Z,1.37
2019-05-13T06:29:55.876Z,0.75
2019-05-13T06:35:01.904Z,0.80
2019-05-13T06:40:06.298Z,0.93
2019-05-13T06:45:12.471Z,0.93
2019-05-13T06:50:15.644Z,1.10
2019-05-13T06:55:21.281Z,0.77
2019-05-13T07:00:24.407Z,0.80
2019-05-13T07:05:27.879Z,1.32
2019-05-13T07:10:32.105Z,1.35
2019-05-13T07:15:35.640Z,1.20
2019-05-13T07:20:38.120Z,1.00
2019-05-13T07:25:42.153Z,0.90
2019-05-13T07:30:46.522Z,1.22
2019-05-13T07:35:57.234Z,1.40
2019-05-13T07:41:03.079Z,1.02
2019-05-13T07:46:06.549Z,1.40
2019-05-13T07:51:11.997Z,1.50
2019-05-13T07:56:15.217Z,1.25
2019-05-13T08:01:18.695Z,0.93
2019-05-13T08:06:22.281Z,1.20
2019-05-13T08:11:25.837Z,1.30
2019-05-13T08:16:29.304Z,1.65
2019-05-13T08:21:32.777Z,1.50
2019-05-13T08:26:38.104Z,1.35
2019-05-13T08:31:41.452Z,1.35
2019-05-13T08:36:45.048Z,1.50
2019-05-13T08:41:48.579Z,1.40
2019-05-13T08:46:52.094Z,1.20
2019-05-13T08:51:55.578Z,0.97
2019-05-13T08:56:59.172Z,1.43
2019-05-13T09:02:03.397Z,1.30
2019-05-13T09:07:06.999Z,1.33
2019-05-13T09:12:11.606Z,1.85
2019-05-13T09:17:15.330Z,1.70
2019-05-13T09:22:21.218Z,1.97
2019-05-13T09:27:24.000Z,1.30
2019-05-13T09:32:27.480Z,1.27
2019-05-13T09:37:31.760Z,1.10
2019-05-13T09:42:48.255Z,1.45
2019-05-13T09:47:41.752Z,1.17
2019-05-13T09:52:45.414Z,1.30
2019-05-13T09:57:48.889Z,1.47
2019-05-13T10:02:52.369Z,1.02
2019-05-13T10:07:55.840Z,1.45
2019-05-13T10:13:11.278Z,1.05
2019-05-13T10:18:04.582Z,1.17
2019-05-13T10:23:08.121Z,1.20
2019-05-13T10:28:13.290Z,1.20
2019-05-13T10:33:16.873Z,1.22
2019-05-13T10:38:22.709Z,1.37
2019-05-13T10:43:31.432Z,1.25
2019-05-13T10:48:31.881Z,1.30
2019-05-13T10:53:35.337Z,1.07
2019-05-13T10:58:42.006Z,2.27
2019-05-13T11:03:43.984Z,1.10
2019-05-13T11:08:47.441Z,1.37
2019-05-13T11:13:58.750Z,1.10
2019-05-13T11:18:56.458Z,1.27
2019-05-13T11:24:02.750Z,1.12
2019-05-13T11:29:05.107Z,1.37
2019-05-13T11:34:08.585Z,1.00
2019-05-13T11:39:13.063Z,1.27
2019-05-13T11:44:17.189Z,1.60
2019-05-13T11:49:20.717Z,2.02
2019-05-13T11:54:24.248Z,0.80
2019-05-13T11:59:27.705Z,1.30
2019-05-13T12:04:34.348Z,0.90
2019-05-13T12:09:36.346Z,1.17
2019-05-13T12:15:04.024Z,1.15
2019-05-13T12:19:44.997Z,1.15
2019-05-13T12:24:48.460Z,1.57
2019-05-13T12:29:53.025Z,0.85
2019-05-13T12:34:56.670Z,1.32
2019-05-13T12:40:02.906Z,1.07
2019-05-13T12:45:10.052Z,1.26
2019-05-13T12:50:13.560Z,0.88
2019-05-13T12:55:17.765Z,1.35
2019-05-13T13:00:23.607Z,1.90
2019-05-13T13:05:33.115Z,1.10
2019-05-13T13:10:34.456Z,1.32
2019-05-13T13:15:42.264Z,1.07
2019-05-13T13:20:42.570Z,1.32
2019-05-13T13:25:52.620Z,1.07
2019-05-13T13:30:52.890Z,0.90
2019-05-13T13:36:00.161Z,1.02
2019-05-13T13:41:04.107Z,0.75
2019-05-13T13:46:13.619Z,1.05
2019-05-13T13:51:14.189Z,0.90
2019-05-13T13:56:17.444Z,1.00
2019-05-13T14:01:26.979Z,0.85
2019-05-13T14:07:33.570Z,0.80
2019-05-13T14:11:33.092Z,0.72
2019-05-13T14:16:37.525Z,0.80
2019-05-13T14:21:41.710Z,1.02
2019-05-13T14:26:46.044Z,1.17
2019-05-13T14:31:51.808Z,0.70
2019-05-13T14:36:54.700Z,1.00
2019-05-13T14:41:58.159Z,0.62
2019-05-13T14:47:01.709Z,0.80
2019-05-13T14:52:05.227Z,0.70
2019-05-13T14:57:11.832Z,0.90
2019-05-13T15:02:13.877Z,0.68
2019-05-13T15:07:17.338Z,0.47
2019-05-13T15:12:21.643Z,0.60
2019-05-13T15:17:25.243Z,0.88
2019-05-13T15:22:28.704Z,0.60
2019-05-13T15:27:32.164Z,0.93
2019-05-13T15:32:35.620Z,0.98
2019-05-13T15:37:41.222Z,0.70
2019-05-13T15:42:44.259Z,0.80
2019-05-13T15:47:47.879Z,0.90
2019-05-13T15:52:51.336Z,0.98
2019-05-13T15:57:54.879Z,0.98
2019-05-13T16:02:58.340Z,0.90
2019-05-13T16:08:01.797Z,0.93
2019-05-13T16:13:05.259Z,1.20
2019-05-13T16:18:08.717Z,1.10
2019-05-13T16:23:12.960Z,1.30
2019-05-13T16:28:16.697Z,0.78
2019-05-13T16:33:20.160Z,1.00
2019-05-13T16:38:23.626Z,1.05
2019-05-13T16:43:27.081Z,1.50
2019-05-13T16:48:32.353Z,1.77
2019-05-13T16:53:35.728Z,1.85
2019-05-13T16:58:41.471Z,1.45
2019-05-13T17:03:44.380Z,1.87
2019-05-13T17:08:47.839Z,1.07
2019-05-13T17:13:51.525Z,1.27
2019-05-13T17:18:55.107Z,1.17
2019-05-13T17:23:58.613Z,1.22
2019-05-13T17:29:02.079Z,1.15
2019-05-13T17:34:05.536Z,1.20
2019-05-13T17:39:09.267Z,1.30
2019-05-13T17:44:12.820Z,0.90
2019-05-13T17:49:17.046Z,1.15
2019-05-13T17:54:22.147Z,1.17
2019-05-13T17:59:25.747Z,1.00
2019-05-13T18:04:31.228Z,1.10
2019-05-13T18:09:34.391Z,0.88
2019-05-13T18:14:37.855Z,1.30
2019-05-13T18:19:42.185Z,1.10
2019-05-13T18:24:45.757Z,1.00
2019-05-13T18:29:51.217Z,1.12
2019-05-13T18:34:54.405Z,0.60
2019-05-13T18:39:57.871Z,1.00
2019-05-13T18:45:02.128Z,0.78
2019-05-13T18:50:07.020Z,0.65
2019-05-13T18:55:12.416Z,0.70
2019-05-13T19:00:16.103Z,0.90
2019-05-13T19:05:21.240Z,1.10
2019-05-13T19:10:24.805Z,0.90
2019-05-13T19:15:28.528Z,0.98
2019-05-13T19:20:31.991Z,0.80
2019-05-13T19:25:35.448Z,0.90
2019-05-13T19:30:41.010Z,0.90
2019-05-13T19:35:44.174Z,0.70
2019-05-13T19:40:47.631Z,0.90
2019-05-13T19:45:51.942Z,1.02
2019-05-13T19:50:55.532Z,1.05
2019-05-13T19:56:01.229Z,0.90
2019-05-13T20:01:04.247Z,0.85
2019-05-13T20:06:07.705Z,0.80
2019-05-13T20:11:11.661Z,0.60
2019-05-13T20:16:15.247Z,0.68
2019-05-13T20:21:18.697Z,0.78
2019-05-13T20:26:22.233Z,0.78
2019-05-13T20:31:25.691Z,0.47
2019-05-13T20:36:31.354Z,0.60
2019-05-13T20:41:34.338Z,0.80
2019-05-13T20:46:37.799Z,0.70
2019-05-13T20:51:41.323Z,0.72
2019-05-13T20:56:44.809Z,0.57
2019-05-13T21:01:48.266Z,0.60
2019-05-13T21:06:51.792Z,0.70
2019-05-13T21:11:55.223Z,0.75
2019-05-13T21:16:58.692Z,0.75
2019-05-13T21:22:02.144Z,0.57
2019-05-13T21:27:05.601Z,0.80
2019-05-13T21:32:09.063Z,0.50
2019-05-13T21:37:12.525Z,0.70
2019-05-13T21:42:15.987Z,0.70
2019-05-13T21:47:21.844Z,0.87
2019-05-13T21:52:24.667Z,0.72
2019-05-13T21:57:28.138Z,0.60
2019-05-13T22:02:31.797Z,0.70
2019-05-13T22:07:35.381Z,0.70
2019-05-13T22:12:41.279Z,0.60
2019-05-13T22:17:44.049Z,0.70
2019-05-13T22:22:47.526Z,0.60
2019-05-13T22:27:51.843Z,0.70
2019-05-13T22:32:55.551Z,0.70
2019-05-13T22:37:59.012Z,0.60
2019-05-13T22:43:02.489Z,0.50
2019-05-13T22:48:05.971Z,0.70
2019-05-13T22:53:11.840Z,0.70
2019-05-13T22:58:14.641Z,0.40
2019-05-13T23:03:18.111Z,0.65
2019-05-13T23:08:21.810Z,0.62
2019-05-13T23:13:25.325Z,0.60
2019-05-13T23:18:28.792Z,0.50
2019-05-13T23:23:32.254Z,0.50
2019-05-13T23:28:35.773Z,0.45
2019-05-13T23:33:39.234Z,0.40
2019-05-13T23:38:42.694Z,0.70
2019-05-13T23:43:46.156Z,0.90
2019-05-13T23:48:51.837Z,0.40
2019-05-13T23:53:54.804Z,0.50
2019-05-13T23:58:58.269Z,0.50
